Belize, Belize

8:36 AM CST on August 30, 2015 (GMT -0600)
Philip S W Goldson International | | Change Station
CLOSE
Current Station
Airport
Location: Belize,
Elevation: 16 ft
Nearby Weather Stations

Elev 16 ft 17.54 °N, 88.31 °W | Updated 36 minutes ago

Partly Cloudy
Partly Cloudy
82 °F
Feels Like 91 °F
N
6
Wind Variable Wind from WNW

Today
High -- | Low -- °F
--% Chance of Precip.
Yesterday
High -- | Low -- °F
Precip. -- in
5:38 AM 6:08 PM
Full, 99% visible
Pressure 29.94 in
Visibility 6.2 miles
Clouds Few 2200 ft
Heat Index 91 °F
Dew Point 77 °F
Humidity 84%
Rainfall 0.00 in
Snow Depth Not available.
UV 5 out of 12
Pollen Not available.
Air Quality Not available.
Flu Activity Not available.
METAR MZBZ 301400Z 30005KT 9999 FEW022 28/25 A2994 Q1013 NOSIG RMK CB TOPS-NE/E
Pressure 29.94 in
Visibility 6.2 miles
Clouds Few 2200 ft
Heat Index 91 °F
Dew Point 77 °F
Humidity 84%
Rainfall 0.00 in
Snow Depth Not available.
UV 5 out of 12
Pollen Not available.
Air Quality Not available.
Flu Activity Not available.
METAR MZBZ 301400Z 30005KT 9999 FEW022 28/25 A2994 Q1013 NOSIG RMK CB TOPS-NE/E

10-Day Weather Forecast

×

Almanac

Astronomy

Aug. 30, 2015 Rise Set
Actual Time
Civil Twilight
Nautical Twilight
Astronomical Twilight
Moon
Length of Visible Light
Length of Day
Tomorrow will be .
, % of the Moon is Illuminated

Today's Extremes

Country Highs Country Lows

Community

WunderPhotos

Upload Photos

1,850,974 photos uploaded!

WunderBlogs® & News

Nearby

Air Quality

  Air Quality AQ Index Pollutant
Not available.

Snow Depth

Station Depth Elevation

Earthquake Activity

City Distance Mag. Time & Date
Minimum magnitude displayed is 2.5.

Coastal Water Temperatures

Place Temperature

Stations

Nearby Weather Stations

Station Location Temp. Windchill Dew Point Humidity Wind Precip. Elev Updated Type